1995 FODAH (1995020S20038)


On this page: IBTrACS data - Map and Plots - Positions - Intensities - Original source data

Summary

Start Jan 19
End Jan 28
Basin SI
LMI 55 kt
Sources jtwc_sh
reunion
neumann
In WMO? Yes
Previous storm 1995 DORINA (SI)
Previous in basin 1995 DORINA (SI)
Concurrent storms 1995 DORINA (SI)
1995 FODAH (SI)
Next in basin 1995 GAIL (SI)
Next storm 1995 GAIL (SI)

top of page IBTrACS Data: File Access

top of page HURSAT Data: File Access

Image of storm

top of page Plots:

Map of storm track will not appear if FTP is down
Time series of cyclone Maximum Sustained Wind will not appear if FTP is down
Time series of cyclone Minimum Central Pressure will not appear if FTP is down

top of page Track Data:Position

jtwc_sh reunion neumann
Date Lat Lon Lat Lon Lat Lon
1995-01-19 12:00:00 -20.0 38.0 -20.0 38.0
1995-01-19 18:00:00 -19.5 38.0 -19.5 38.0
1995-01-20 00:00:00 -19.0 38.0 -19.0 38.0
1995-01-20 06:00:00 -18.5 38.0 -18.5 38.0
1995-01-20 12:00:00 -18.0 38.0 -18.0 38.0
1995-01-20 18:00:00 -17.6 38.1 -17.6 38.1
1995-01-21 00:00:00 -17.2 38.3 -17.2 38.3
1995-01-21 06:00:00 -16.9 38.6 -16.9 38.6
1995-01-21 12:00:00 -16.9 39.0 -16.9 39.0
1995-01-21 18:00:00 -16.9 39.4 -16.9 39.4
1995-01-22 00:00:00 -17.2 39.8 -17.2 39.8
1995-01-22 06:00:00 -17.7 40.0 -17.7 40.0
1995-01-22 12:00:00 -18.2 40.2 -16.9 41.6 -18.2 40.2
1995-01-22 18:00:00 -18.7 40.4 -17.6 41.4 -18.7 40.4
1995-01-23 00:00:00 -19.1 40.6 -18.3 41.2 -19.1 40.6
1995-01-23 06:00:00 -19.6 40.7 -19.1 41.0 -19.6 40.7
1995-01-23 12:00:00 -20.1 40.8 -19.6 41.0 -20.1 40.8
1995-01-23 18:00:00 -20.7 40.9 -20.5 41.1 -20.7 40.9
1995-01-24 00:00:00 -21.4 40.9 -21.3 41.1 -21.4 40.9
1995-01-24 06:00:00 -22.2 40.9 -22.2 40.8 -22.2 40.9
1995-01-24 12:00:00 -23.0 41.0 -23.1 40.8 -23.0 41.0
1995-01-24 18:00:00 -23.9 41.0 -23.9 40.8 -23.9 41.0
1995-01-25 00:00:00 -24.8 41.1 -24.9 40.8 -24.8 41.1
1995-01-25 06:00:00 -25.8 41.3 -26.0 40.7 -25.8 41.3
1995-01-25 12:00:00 -27.0 41.3 -26.9 40.8 -27.0 41.3
jtwc_sh reunion neumann
1995-01-25 18:00:00 -28.2 41.3 -28.2 41.1 -28.2 41.3
1995-01-26 00:00:00 -29.5 41.3 -29.6 41.4 -29.5 41.3
1995-01-26 06:00:00 -30.7 41.5 -30.9 41.4 -30.7 41.5
1995-01-26 12:00:00 -31.8 42.1 -32.1 41.6 -31.8 42.1
1995-01-26 18:00:00 -32.5 43.2 -32.9 43.0 -32.5 43.2
1995-01-27 00:00:00 -32.8 44.4 -33.4 44.7 -32.8 44.4
1995-01-27 06:00:00 -33.0 45.6 -33.9 46.8 -33.0 45.6
1995-01-27 12:00:00 -34.9 49.6
1995-01-27 18:00:00 -37.0 52.4
1995-01-28 00:00:00 -39.0 56.8

top of pageTrack Data:Intensity

jtwc_sh reunion neumann
Date Wind Pres Wind Pres Wind Pres
1995-01-19 12:00:00 15. 15.
1995-01-19 18:00:00 15. 15.
1995-01-20 00:00:00 15. 15.
1995-01-20 06:00:00 15. 15.
1995-01-20 12:00:00 15. 15.
1995-01-20 18:00:00 15. 15.
1995-01-21 00:00:00 15. 15.
1995-01-21 06:00:00 15. 15.
1995-01-21 12:00:00 15. 15.
1995-01-21 18:00:00 15. 15.
1995-01-22 00:00:00 20. 20.
1995-01-22 06:00:00 20. 20.
1995-01-22 12:00:00 20. 25. 1000. 20.
1995-01-22 18:00:00 20. 25. 1000. 20.
1995-01-23 00:00:00 25. 25. 1000. 25.
1995-01-23 06:00:00 25. 25. 1000. 25.
1995-01-23 12:00:00 30. 30. 995. 30.
1995-01-23 18:00:00 35. 32. 993. 35.
1995-01-24 00:00:00 40. 40. 985. 40.
1995-01-24 06:00:00 45. 45. 980. 45.
1995-01-24 12:00:00 45. 50. 975. 45.
1995-01-24 18:00:00 45. 55. 970. 45.
1995-01-25 00:00:00 45. 55. 970. 45.
1995-01-25 06:00:00 45. 50. 975. 45.
1995-01-25 12:00:00 45. 50. 975. 45.
jtwc_sh reunion neumann
1995-01-25 18:00:00 45. 45. 980. 45.
1995-01-26 00:00:00 45. 45. 985. 45.
1995-01-26 06:00:00 40. 40. 990. 40.
1995-01-26 12:00:00 35. 35.
1995-01-26 18:00:00 30. 30.
1995-01-27 00:00:00 30. 30.
1995-01-27 06:00:00 25. 25.
1995-01-27 12:00:00
1995-01-27 18:00:00
1995-01-28 00:00:00

top of page Links to source data

Source Source file Format
jtwc_sh bsh091995.txt ATCF
reunion WMO-Best-Tracks.txt:Line=16938:fodah WMO (old format)
neumann tracks.sh:Storm=1022:FODAH:BSH091995:JTWC HURDAT